createdAt,value
2018-12-18T00:00:05.000Z,26.7
2018-12-18T00:01:50.000Z,26.8
2018-12-18T00:03:05.000Z,26.7
2018-12-18T00:04:05.000Z,26.7
2018-12-18T00:06:05.000Z,26.7
2018-12-18T00:08:05.000Z,26.6
2018-12-18T00:09:05.000Z,26.6
2018-12-18T00:10:05.000Z,26.6
2018-12-18T00:12:05.000Z,26.7
2018-12-18T00:14:05.000Z,26.7
2018-12-18T00:15:05.000Z,26.7
2018-12-18T00:16:05.000Z,26.7
2018-12-18T00:18:05.000Z,26.8
2018-12-18T00:19:05.000Z,26.8
2018-12-18T00:20:05.000Z,26.8
2018-12-18T00:22:05.000Z,26.8
2018-12-18T00:24:05.000Z,26.7
2018-12-18T00:26:05.000Z,26.7
2018-12-18T00:27:05.000Z,26.7
2018-12-18T00:28:05.000Z,26.7
2018-12-18T00:29:05.000Z,26.7
2018-12-18T00:31:05.000Z,26.7
2018-12-18T00:33:05.000Z,26.7
2018-12-18T00:34:05.000Z,26.7
2018-12-18T00:36:05.000Z,26.7
2018-12-18T00:37:05.000Z,26.7
2018-12-18T00:39:05.000Z,26.8
2018-12-18T00:41:05.000Z,26.7
2018-12-18T00:42:05.000Z,26.7
2018-12-18T00:44:05.000Z,26.7
2018-12-18T00:46:05.000Z,26.7
2018-12-18T00:47:05.000Z,26.7
2018-12-18T00:49:05.000Z,26.8
2018-12-18T00:51:05.000Z,26.7
2018-12-18T00:52:05.000Z,26.6
2018-12-18T00:54:05.000Z,26.6
2018-12-18T00:56:05.000Z,26.5
2018-12-18T00:57:05.000Z,26.5
2018-12-18T00:58:05.000Z,26.5
2018-12-18T00:59:05.000Z,26.6
2018-12-18T01:00:50.000Z,26.6
2018-12-18T01:02:05.000Z,26.6
2018-12-18T01:03:05.000Z,26.6
2018-12-18T01:05:05.000Z,26.6
2018-12-18T01:06:05.000Z,26.6
2018-12-18T01:07:05.000Z,26.6
2018-12-18T01:09:05.000Z,26.6
2018-12-18T01:10:05.000Z,26.6
2018-12-18T01:12:05.000Z,26.5
2018-12-18T01:13:05.000Z,26.5
2018-12-18T01:14:50.000Z,26.5
2018-12-18T01:16:05.000Z,26.5
2018-12-18T01:17:05.000Z,26.5
2018-12-18T01:19:05.000Z,26.6
2018-12-18T01:20:05.000Z,26.6
2018-12-18T01:22:05.000Z,26.6
2018-12-18T01:23:05.000Z,26.7
2018-12-18T01:25:05.000Z,26.7
2018-12-18T01:26:05.000Z,26.7
2018-12-18T01:28:05.000Z,26.7
2018-12-18T01:29:51.000Z,26.7
2018-12-18T01:31:05.000Z,26.7
2018-12-18T01:32:05.000Z,26.7
2018-12-18T01:33:05.000Z,26.7
2018-12-18T01:34:05.000Z,26.7
2018-12-18T01:35:05.000Z,26.8
2018-12-18T01:37:05.000Z,26.8
2018-12-18T01:39:05.000Z,26.8
2018-12-18T01:41:05.000Z,26.7
2018-12-18T01:43:05.000Z,26.6
2018-12-18T01:45:05.000Z,26.5
2018-12-18T01:46:05.000Z,26.5
2018-12-18T01:47:05.000Z,26.5
2018-12-18T01:49:05.000Z,26.5
2018-12-18T01:50:05.000Z,26.6
2018-12-18T01:51:05.000Z,26.6
2018-12-18T01:53:05.000Z,26.7
2018-12-18T01:54:50.000Z,26.7
2018-12-18T01:56:05.000Z,26.6
2018-12-18T01:58:05.000Z,26.5
2018-12-18T01:59:05.000Z,26.5
2018-12-18T02:01:05.000Z,26.5
2018-12-18T02:02:05.000Z,26.6
2018-12-18T02:04:05.000Z,26.6
2018-12-18T02:05:05.000Z,26.6
2018-12-18T02:06:05.000Z,26.7
2018-12-18T02:07:05.000Z,26.7
2018-12-18T02:09:05.000Z,26.7
2018-12-18T02:10:05.000Z,26.7
2018-12-18T02:12:05.000Z,26.7
2018-12-18T02:13:05.000Z,26.7
2018-12-18T02:15:05.000Z,26.7
2018-12-18T02:16:05.000Z,26.7
2018-12-18T02:17:50.000Z,26.7
2018-12-18T02:19:05.000Z,26.7
2018-12-18T02:21:05.000Z,26.6
2018-12-18T02:22:05.000Z,26.6
2018-12-18T02:23:05.000Z,26.6
2018-12-18T02:25:05.000Z,26.6
2018-12-18T02:26:05.000Z,26.7
2018-12-18T02:27:05.000Z,26.7
2018-12-18T02:29:05.000Z,26.7
2018-12-18T02:31:05.000Z,26.7
2018-12-18T02:33:05.000Z,26.6
2018-12-18T02:35:05.000Z,26.5
2018-12-18T02:37:05.000Z,26.4
2018-12-18T02:39:06.000Z,26.4
2018-12-18T02:41:06.000Z,26.3
2018-12-18T02:43:06.000Z,26.3
2018-12-18T02:45:05.000Z,26.3
2018-12-18T02:47:05.000Z,26.3
2018-12-18T02:48:50.000Z,26.3
2018-12-18T02:50:05.000Z,26.3
2018-12-18T02:51:05.000Z,26.3
2018-12-18T02:52:05.000Z,26.4
2018-12-18T02:54:06.000Z,26.4
2018-12-18T02:56:06.000Z,26.4
2018-12-18T02:57:06.000Z,26.4
2018-12-18T02:59:06.000Z,26.5
2018-12-18T03:00:06.000Z,26.5
2018-12-18T03:01:06.000Z,26.6
2018-12-18T03:03:06.000Z,26.6
2018-12-18T03:05:06.000Z,26.5
2018-12-18T03:06:06.000Z,26.5
2018-12-18T03:08:06.000Z,26.6
2018-12-18T03:10:06.000Z,26.6
2018-12-18T03:12:06.000Z,26.5
2018-12-18T03:13:06.000Z,26.5
2018-12-18T03:14:06.000Z,26.6
2018-12-18T03:16:06.000Z,26.6
2018-12-18T03:18:06.000Z,26.6
2018-12-18T03:20:08.000Z,26.6
2018-12-18T03:22:08.000Z,26.6
2018-12-18T03:24:08.000Z,26.5
2018-12-18T03:25:08.000Z,26.5
2018-12-18T03:27:08.000Z,26.5
2018-12-18T03:29:08.000Z,26.4
2018-12-18T03:30:08.000Z,26.4
2018-12-18T03:32:08.000Z,26.4
2018-12-18T03:34:08.000Z,26.4
2018-12-18T03:35:53.000Z,26.4
2018-12-18T03:37:08.000Z,26.3
2018-12-18T03:39:08.000Z,26.3
2018-12-18T03:41:08.000Z,26.4
2018-12-18T03:42:08.000Z,26.4
2018-12-18T03:44:08.000Z,26.4
2018-12-18T03:46:08.000Z,26.5
2018-12-18T03:48:08.000Z,26.4
2018-12-18T03:49:08.000Z,26.5
2018-12-18T03:51:08.000Z,26.5
2018-12-18T03:53:08.000Z,26.5
2018-12-18T03:55:08.000Z,26.5
2018-12-18T03:57:08.000Z,26.5
2018-12-18T03:58:08.000Z,26.5
2018-12-18T04:00:08.000Z,26.5
2018-12-18T04:02:08.000Z,26.4
2018-12-18T04:04:08.000Z,26.4
2018-12-18T04:05:08.000Z,26.3
2018-12-18T04:07:08.000Z,26.4
2018-12-18T04:08:08.000Z,26.4
2018-12-18T04:10:08.000Z,26.4
2018-12-18T04:11:08.000Z,26.5
2018-12-18T04:12:08.000Z,26.5
2018-12-18T04:13:08.000Z,26.6
2018-12-18T04:15:08.000Z,26.6
2018-12-18T04:17:08.000Z,26.5
2018-12-18T04:19:08.000Z,26.4
2018-12-18T04:20:08.000Z,26.4
2018-12-18T04:22:08.000Z,26.5
2018-12-18T04:24:08.000Z,26.4
2018-12-18T04:25:08.000Z,26.5
2018-12-18T04:26:08.000Z,26.5
2018-12-18T04:27:53.000Z,26.5
2018-12-18T04:29:08.000Z,26.5
2018-12-18T04:30:08.000Z,26.5
2018-12-18T04:32:08.000Z,26.5
2018-12-18T04:34:08.000Z,26.5
2018-12-18T04:36:08.000Z,26.5
2018-12-18T04:38:08.000Z,26.4
2018-12-18T04:40:08.000Z,26.4
2018-12-18T04:41:08.000Z,26.4
2018-12-18T04:43:08.000Z,26.3
2018-12-18T04:45:08.000Z,26.3
2018-12-18T04:46:08.000Z,26.3
2018-12-18T04:48:08.000Z,26.4
2018-12-18T04:49:08.000Z,26.4
2018-12-18T04:51:08.000Z,26.5
2018-12-18T04:52:08.000Z,26.5
2018-12-18T04:54:08.000Z,26.5
2018-12-18T04:56:08.000Z,26.4
2018-12-18T04:57:08.000Z,26.4
2018-12-18T04:59:08.000Z,26.4
2018-12-18T05:01:08.000Z,26.3
2018-12-18T05:02:08.000Z,26.3
2018-12-18T05:04:08.000Z,26.4
2018-12-18T05:06:08.000Z,26.4
2018-12-18T05:07:52.000Z,26.4
2018-12-18T05:09:08.000Z,26.3
2018-12-18T05:10:08.000Z,26.3
2018-12-18T05:12:08.000Z,26.4
2018-12-18T05:14:08.000Z,26.3
2018-12-18T05:16:08.000Z,26.3
2018-12-18T05:17:08.000Z,26.3
2018-12-18T05:18:08.000Z,26.4
2018-12-18T05:20:08.000Z,26.4
2018-12-18T05:21:08.000Z,26.4
2018-12-18T05:22:08.000Z,26.4
2018-12-18T05:24:08.000Z,26.4
2018-12-18T05:26:08.000Z,26.3
2018-12-18T05:28:08.000Z,26.2
2018-12-18T05:29:08.000Z,26.2
2018-12-18T05:31:08.000Z,26.2
2018-12-18T05:33:08.000Z,26.2
2018-12-18T05:34:53.000Z,26.2
2018-12-18T05:36:08.000Z,26
2018-12-18T05:38:08.000Z,25.9
2018-12-18T05:40:08.000Z,25.9
2018-12-18T05:41:08.000Z,26
2018-12-18T05:42:52.000Z,26.1
2018-12-18T05:44:08.000Z,26.1
2018-12-18T05:45:08.000Z,26.2
2018-12-18T05:47:08.000Z,26.3
2018-12-18T05:48:08.000Z,26.3
2018-12-18T05:49:52.000Z,26.4
2018-12-18T05:51:08.000Z,26.3
2018-12-18T05:53:08.000Z,26.3
2018-12-18T05:54:52.000Z,26.3
2018-12-18T05:56:08.000Z,26.3
2018-12-18T05:58:08.000Z,26.3
2018-12-18T06:00:08.000Z,26.3
2018-12-18T06:01:08.000Z,26.3
2018-12-18T06:03:08.000Z,26.4
2018-12-18T06:04:08.000Z,26.4
2018-12-18T06:06:08.000Z,26.4
2018-12-18T06:08:08.000Z,26.4
2018-12-18T06:09:52.000Z,26.5
2018-12-18T06:11:08.000Z,26.5
2018-12-18T06:12:08.000Z,26.5
2018-12-18T06:14:08.000Z,26.6
2018-12-18T06:15:08.000Z,26.7
2018-12-18T06:16:08.000Z,26.8
2018-12-18T06:17:08.000Z,26.8
2018-12-18T06:19:08.000Z,26.9
2018-12-18T06:21:08.000Z,26.8
2018-12-18T06:22:08.000Z,26.9
2018-12-18T06:24:08.000Z,26.9
2018-12-18T06:25:52.000Z,26.9
2018-12-18T06:27:08.000Z,26.9
2018-12-18T06:28:08.000Z,26.9
2018-12-18T06:30:08.000Z,26.9
2018-12-18T06:31:53.000Z,26.9
2018-12-18T06:33:08.000Z,26.8
2018-12-18T06:34:08.000Z,26.8
2018-12-18T06:35:08.000Z,26.8
2018-12-18T06:37:08.000Z,26.8
2018-12-18T06:39:08.000Z,26.8
2018-12-18T06:40:08.000Z,26.8
2018-12-18T06:42:08.000Z,26.9
2018-12-18T06:43:08.000Z,26.9
2018-12-18T06:45:08.000Z,27
2018-12-18T06:47:08.000Z,26.9
2018-12-18T06:49:08.000Z,26.8
2018-12-18T06:50:52.000Z,26.8
2018-12-18T06:52:08.000Z,26.8
2018-12-18T06:54:08.000Z,26.8
2018-12-18T06:56:08.000Z,26.8
2018-12-18T06:58:08.000Z,26.8
2018-12-18T06:59:08.000Z,26.8
2018-12-18T07:01:08.000Z,26.9
2018-12-18T07:03:08.000Z,27
2018-12-18T07:04:08.000Z,27
2018-12-18T07:06:08.000Z,27.1
2018-12-18T07:07:53.000Z,27.1
2018-12-18T07:09:08.000Z,27
2018-12-18T07:10:08.000Z,27
2018-12-18T07:11:08.000Z,27
2018-12-18T07:12:08.000Z,27.1
2018-12-18T07:14:08.000Z,27.2
2018-12-18T07:16:08.000Z,27.2
2018-12-18T07:17:08.000Z,27.3
2018-12-18T07:19:08.000Z,27.3
2018-12-18T07:20:52.000Z,27.4
2018-12-18T07:22:08.000Z,27.3
2018-12-18T07:23:08.000Z,27.3
2018-12-18T07:25:08.000Z,27.3
2018-12-18T07:26:08.000Z,27.3
2018-12-18T07:27:08.000Z,27.3
2018-12-18T07:29:08.000Z,27.4
2018-12-18T07:30:08.000Z,27.4
2018-12-18T07:31:52.000Z,27.5
2018-12-18T07:33:08.000Z,27.5
2018-12-18T07:34:08.000Z,27.5
2018-12-18T07:35:08.000Z,27.5
2018-12-18T07:37:08.000Z,27.6
2018-12-18T07:39:08.000Z,27.5
2018-12-18T07:40:52.000Z,27.5
2018-12-18T07:42:08.000Z,27.4
2018-12-18T07:43:08.000Z,27.5
2018-12-18T07:45:08.000Z,27.5
2018-12-18T07:47:08.000Z,27.4
2018-12-18T07:49:08.000Z,27.4
2018-12-18T07:51:08.000Z,27.4
2018-12-18T07:53:08.000Z,27.4
2018-12-18T07:54:08.000Z,27.5
2018-12-18T07:55:53.000Z,27.5
2018-12-18T07:57:08.000Z,27.4
2018-12-18T07:58:08.000Z,27.4
2018-12-18T07:59:08.000Z,27.5
2018-12-18T08:01:08.000Z,27.6
2018-12-18T08:03:08.000Z,27.6
2018-12-18T08:04:53.000Z,27.6
2018-12-18T08:06:08.000Z,27.6
2018-12-18T08:08:08.000Z,27.6
2018-12-18T08:10:08.000Z,27.6
2018-12-18T08:11:08.000Z,27.7
2018-12-18T08:12:08.000Z,27.8
2018-12-18T08:14:08.000Z,27.9
2018-12-18T08:16:08.000Z,28
2018-12-18T08:17:08.000Z,28
2018-12-18T08:19:08.000Z,28.1
2018-12-18T08:21:08.000Z,28.3
2018-12-18T08:23:08.000Z,28.3
2018-12-18T08:25:08.000Z,28.4
2018-12-18T08:27:08.000Z,28.4
2018-12-18T08:28:08.000Z,28.4
2018-12-18T08:30:08.000Z,28.4
2018-12-18T08:32:08.000Z,28.4
2018-12-18T08:34:08.000Z,28.3
2018-12-18T08:36:08.000Z,28.2
2018-12-18T08:38:08.000Z,28.1
2018-12-18T08:39:08.000Z,28.1
2018-12-18T08:40:08.000Z,28.1
2018-12-18T08:42:08.000Z,28.2
2018-12-18T08:43:53.000Z,28.2
2018-12-18T08:45:08.000Z,28.2
2018-12-18T08:46:08.000Z,28.2
2018-12-18T08:48:08.000Z,28.1
2018-12-18T08:50:08.000Z,28.1
2018-12-18T08:52:08.000Z,28
2018-12-18T08:53:53.000Z,28
2018-12-18T08:55:08.000Z,27.9
2018-12-18T08:57:08.000Z,27.9
2018-12-18T08:58:08.000Z,27.9
2018-12-18T09:00:08.000Z,28
2018-12-18T09:02:08.000Z,27.9
2018-12-18T09:04:08.000Z,27.9
2018-12-18T09:05:08.000Z,27.9
2018-12-18T09:07:08.000Z,28
2018-12-18T09:09:08.000Z,28
2018-12-18T09:11:08.000Z,27.9
2018-12-18T09:12:08.000Z,27.9
2018-12-18T09:14:08.000Z,28
2018-12-18T09:16:08.000Z,28
2018-12-18T09:18:08.000Z,28
2018-12-18T09:19:53.000Z,28
2018-12-18T09:21:08.000Z,28
2018-12-18T09:22:08.000Z,28
2018-12-18T09:23:08.000Z,28.1
2018-12-18T09:24:08.000Z,28.2
2018-12-18T09:26:08.000Z,28.2
2018-12-18T09:28:08.000Z,28.2
2018-12-18T09:29:08.000Z,28.2
2018-12-18T09:30:08.000Z,28.3
2018-12-18T09:32:08.000Z,28.3
2018-12-18T09:33:08.000Z,28.3
2018-12-18T09:35:08.000Z,28.4
2018-12-18T09:37:08.000Z,28.4
2018-12-18T09:39:08.000Z,28.3
2018-12-18T09:40:53.000Z,28.3
2018-12-18T09:42:08.000Z,28.3
2018-12-18T09:43:08.000Z,28.2
2018-12-18T09:45:08.000Z,28.2
2018-12-18T09:47:08.000Z,28.2
2018-12-18T09:49:08.000Z,28.2
2018-12-18T09:50:08.000Z,28.3
2018-12-18T09:52:08.000Z,28.3
2018-12-18T09:53:08.000Z,28.3
2018-12-18T09:55:08.000Z,28.4
2018-12-18T09:57:08.000Z,28.4
2018-12-18T09:58:53.000Z,28.3
2018-12-18T10:00:08.000Z,28.3
2018-12-18T10:01:53.000Z,28.3
2018-12-18T10:03:08.000Z,28.3
2018-12-18T10:05:08.000Z,28.3
2018-12-18T10:07:08.000Z,28.4
2018-12-18T10:08:08.000Z,28.4
2018-12-18T10:10:08.000Z,28.5
2018-12-18T10:12:08.000Z,28.5
2018-12-18T10:14:08.000Z,28.5
2018-12-18T10:15:08.000Z,28.5
2018-12-18T10:16:53.000Z,28.7
2018-12-18T10:18:08.000Z,28.7
2018-12-18T10:20:08.000Z,28.7
2018-12-18T10:21:08.000Z,28.8
2018-12-18T10:22:08.000Z,28.8
2018-12-18T10:23:08.000Z,28.9
2018-12-18T10:25:08.000Z,28.9
2018-12-18T10:26:08.000Z,28.9
2018-12-18T10:27:08.000Z,28.9
2018-12-18T10:29:08.000Z,29
2018-12-18T10:30:08.000Z,29
2018-12-18T10:32:08.000Z,29
2018-12-18T10:33:53.000Z,29
2018-12-18T10:35:08.000Z,29
2018-12-18T10:37:08.000Z,29
2018-12-18T10:39:08.000Z,29
2018-12-18T10:41:08.000Z,29
2018-12-18T10:43:08.000Z,29
2018-12-18T10:44:08.000Z,29
2018-12-18T10:46:08.000Z,29.1
2018-12-18T10:47:08.000Z,29.2
2018-12-18T10:49:08.000Z,29.3
2018-12-18T10:51:08.000Z,29.3
2018-12-18T10:52:08.000Z,29.3
2018-12-18T10:53:08.000Z,29.3
2018-12-18T10:54:08.000Z,29.3
2018-12-18T10:56:08.000Z,29.4
2018-12-18T10:57:08.000Z,29.4
2018-12-18T10:58:08.000Z,29.5
2018-12-18T10:59:08.000Z,29.5
2018-12-18T11:01:08.000Z,29.5
2018-12-18T11:03:08.000Z,29.5
2018-12-18T11:04:53.000Z,29.5
2018-12-18T11:06:08.000Z,29.4
2018-12-18T11:08:08.000Z,29.3
2018-12-18T11:10:08.000Z,29.3
2018-12-18T11:11:08.000Z,29.3
2018-12-18T11:13:08.000Z,29.4
2018-12-18T11:14:08.000Z,29.4
2018-12-18T11:16:08.000Z,29.5
2018-12-18T11:18:08.000Z,29.4
2018-12-18T11:20:08.000Z,29.3
2018-12-18T11:21:08.000Z,29.3
2018-12-18T11:22:53.000Z,29.4
2018-12-18T11:24:08.000Z,29.4
2018-12-18T11:26:08.000Z,29.5
2018-12-18T11:27:08.000Z,29.5
2018-12-18T11:29:08.000Z,29.6
2018-12-18T11:30:08.000Z,29.6
2018-12-18T11:32:08.000Z,29.6
2018-12-18T11:34:08.000Z,29.5
2018-12-18T11:35:08.000Z,29.5
2018-12-18T11:36:08.000Z,29.5
2018-12-18T11:37:08.000Z,29.6
2018-12-18T11:39:08.000Z,29.7
2018-12-18T11:41:08.000Z,29.7
2018-12-18T11:43:08.000Z,29.7
2018-12-18T11:45:08.000Z,29.6
2018-12-18T11:47:08.000Z,29.6
2018-12-18T11:49:08.000Z,29.6
2018-12-18T11:51:08.000Z,29.6
2018-12-18T11:52:08.000Z,29.6
2018-12-18T11:54:08.000Z,29.7
2018-12-18T11:56:08.000Z,29.8
2018-12-18T11:58:08.000Z,29.7
2018-12-18T11:59:08.000Z,29.7
2018-12-18T12:00:08.000Z,29.7
2018-12-18T12:01:52.000Z,29.7
2018-12-18T12:03:08.000Z,29.8
2018-12-18T12:05:08.000Z,29.8
2018-12-18T12:06:08.000Z,29.8
2018-12-18T12:07:52.000Z,29.9
2018-12-18T12:09:08.000Z,29.9
2018-12-18T12:11:08.000Z,29.9
2018-12-18T12:12:08.000Z,29.9
2018-12-18T12:13:08.000Z,30
2018-12-18T12:15:08.000Z,29.9
2018-12-18T12:17:08.000Z,29.8
2018-12-18T12:19:08.000Z,29.7
2018-12-18T12:20:08.000Z,29.7
2018-12-18T12:21:08.000Z,29.8
2018-12-18T12:22:08.000Z,29.8
2018-12-18T12:23:52.000Z,29.9
2018-12-18T12:25:08.000Z,29.9
2018-12-18T12:27:08.000Z,29.9
2018-12-18T12:28:08.000Z,29.9
2018-12-18T12:29:08.000Z,29.9
2018-12-18T12:31:08.000Z,29.9
2018-12-18T12:33:08.000Z,29.9
2018-12-18T12:34:08.000Z,29.6
2018-12-18T13:10:54.000Z,24.2
2018-12-18T13:12:54.000Z,24.6
2018-12-18T13:14:39.000Z,25
2018-12-18T13:15:54.000Z,25.1
2018-12-18T13:16:54.000Z,25.4
2018-12-18T13:18:39.000Z,25.7
2018-12-18T13:19:54.000Z,25.8
2018-12-18T13:21:54.000Z,26
2018-12-18T13:22:54.000Z,26
2018-12-18T13:23:54.000Z,26
2018-12-18T13:25:54.000Z,26
2018-12-18T13:27:54.000Z,26.1
2018-12-18T13:29:54.000Z,26.1
2018-12-18T13:31:54.000Z,26.1
2018-12-18T13:32:54.000Z,26.2
2018-12-18T13:34:39.000Z,26.2
2018-12-18T13:35:54.000Z,26.2
2018-12-18T13:37:54.000Z,26.1
2018-12-18T13:38:54.000Z,26.1
2018-12-18T13:39:54.000Z,26.1
2018-12-18T13:41:54.000Z,26.1
2018-12-18T13:42:54.000Z,26
2018-12-18T13:44:54.000Z,25.8
2018-12-18T13:46:54.000Z,25.5
2018-12-18T13:47:54.000Z,25.4
2018-12-18T13:49:54.000Z,25.4
2018-12-18T13:51:54.000Z,25.5
2018-12-18T13:53:39.000Z,25.8
2018-12-18T13:54:54.000Z,26
2018-12-18T13:55:54.000Z,26.1
2018-12-18T13:56:54.000Z,26.3
2018-12-18T13:57:54.000Z,26.5
2018-12-18T13:59:54.000Z,26.8
2018-12-18T14:00:54.000Z,26.9
2018-12-18T14:02:54.000Z,27.1
2018-12-18T14:04:54.000Z,27.2
2018-12-18T14:05:54.000Z,27.2
2018-12-18T14:06:54.000Z,27.4
2018-12-18T14:07:54.000Z,27.5
2018-12-18T14:09:54.000Z,27.7
2018-12-18T14:11:54.000Z,27.7
2018-12-18T14:12:54.000Z,27.7
2018-12-18T14:14:54.000Z,27.8
2018-12-18T14:15:54.000Z,27.8
2018-12-18T14:17:54.000Z,27.8
2018-12-18T14:19:54.000Z,27.8
2018-12-18T14:21:54.000Z,27.8
2018-12-18T14:23:54.000Z,27.9
2018-12-18T14:24:54.000Z,27.9
2018-12-18T14:26:54.000Z,28
2018-12-18T14:27:54.000Z,28
2018-12-18T14:29:54.000Z,28
2018-12-18T14:30:54.000Z,28
2018-12-18T14:32:54.000Z,28
2018-12-18T14:34:55.000Z,28.2
2018-12-18T14:36:55.000Z,28.2
2018-12-18T14:38:54.000Z,28
2018-12-18T14:39:55.000Z,28
2018-12-18T14:40:55.000Z,28
2018-12-18T14:42:55.000Z,28.2
2018-12-18T14:43:55.000Z,28.2
2018-12-18T14:45:55.000Z,28.4
2018-12-18T14:46:55.000Z,28.4
2018-12-18T14:47:55.000Z,28.5
2018-12-18T14:48:55.000Z,28.5
2018-12-18T14:50:40.000Z,28.6
2018-12-18T14:51:55.000Z,28.6
2018-12-18T14:52:55.000Z,28.6
2018-12-18T14:54:55.000Z,28.6
2018-12-18T14:56:55.000Z,28.6
2018-12-18T14:58:55.000Z,28.5
2018-12-18T15:00:54.000Z,28.4
2018-12-18T15:01:55.000Z,28.4
2018-12-18T15:03:55.000Z,28.5
2018-12-18T15:05:55.000Z,28.4
2018-12-18T15:06:55.000Z,28.4
2018-12-18T15:07:55.000Z,28.4
2018-12-18T15:08:55.000Z,28.4
2018-12-18T15:10:55.000Z,28.4
2018-12-18T15:11:55.000Z,28.4
2018-12-18T15:12:55.000Z,28.5
2018-12-18T15:14:55.000Z,28.6
2018-12-18T15:15:55.000Z,28.6
2018-12-18T15:16:55.000Z,28.6
2018-12-18T15:18:39.000Z,28.7
2018-12-18T15:19:55.000Z,28.6
2018-12-18T15:21:55.000Z,28.6
2018-12-18T15:22:55.000Z,28.6
2018-12-18T15:23:55.000Z,28.6
2018-12-18T15:24:55.000Z,28.6
2018-12-18T15:26:55.000Z,28.6
2018-12-18T15:27:55.000Z,28.6
2018-12-18T15:29:55.000Z,28.5
2018-12-18T15:31:39.000Z,28.5
2018-12-18T15:32:55.000Z,28.5
2018-12-18T15:33:55.000Z,28.5
2018-12-18T15:34:55.000Z,28.5
2018-12-18T15:36:55.000Z,28.5
2018-12-18T15:38:54.000Z,28.4
2018-12-18T15:40:54.000Z,28.4
2018-12-18T15:41:54.000Z,28.4
2018-12-18T15:43:54.000Z,28.4
2018-12-18T15:44:54.000Z,28.4
2018-12-18T15:46:54.000Z,28.3
2018-12-18T15:47:54.000Z,28.4
2018-12-18T15:49:54.000Z,28.4
2018-12-18T15:50:54.000Z,28.4
2018-12-18T15:51:54.000Z,28.5
2018-12-18T15:53:54.000Z,28.5
2018-12-18T15:54:54.000Z,28.5
2018-12-18T15:56:54.000Z,28.5
2018-12-18T15:57:54.000Z,28.5
2018-12-18T15:58:54.000Z,28.6
2018-12-18T16:00:54.000Z,28.6
2018-12-18T16:01:54.000Z,28.6
2018-12-18T16:03:39.000Z,28.6
2018-12-18T16:04:54.000Z,28.5
2018-12-18T16:05:54.000Z,28.5
2018-12-18T16:07:54.000Z,28.5
2018-12-18T16:09:54.000Z,28.4
2018-12-18T16:11:54.000Z,28.3
2018-12-18T16:12:54.000Z,28.2
2018-12-18T16:14:54.000Z,28.3
2018-12-18T16:16:54.000Z,28.2
2018-12-18T16:17:54.000Z,28.3
2018-12-18T16:19:54.000Z,28.3
2018-12-18T16:21:54.000Z,28.2
2018-12-18T16:22:54.000Z,28.2
2018-12-18T16:24:54.000Z,28.3
2018-12-18T16:26:54.000Z,28.3
2018-12-18T16:27:54.000Z,28.3
2018-12-18T16:29:54.000Z,28.3
2018-12-18T16:31:54.000Z,28.2
2018-12-18T16:32:54.000Z,28.2
2018-12-18T16:34:54.000Z,28.3
2018-12-18T16:36:54.000Z,28.2
2018-12-18T16:37:54.000Z,28.2
2018-12-18T16:39:54.000Z,28.1
2018-12-18T16:40:54.000Z,28.1
2018-12-18T16:42:55.000Z,28.2
2018-12-18T16:43:55.000Z,28.2
2018-12-18T16:44:55.000Z,28.3
2018-12-18T16:46:55.000Z,28.3
2018-12-18T16:47:55.000Z,28.3
2018-12-18T16:48:55.000Z,28.3
2018-12-18T16:50:55.000Z,28.3
2018-12-18T16:51:55.000Z,28.3
2018-12-18T16:52:55.000Z,28.3
2018-12-18T16:53:55.000Z,28.4
2018-12-18T16:55:55.000Z,28.3
2018-12-18T16:56:55.000Z,28.3
2018-12-18T16:58:55.000Z,28.2
2018-12-18T17:00:55.000Z,28.2
2018-12-18T17:01:55.000Z,28.2
2018-12-18T17:03:55.000Z,28.2
2018-12-18T17:05:55.000Z,28.2
2018-12-18T17:07:55.000Z,28.1
2018-12-18T17:08:55.000Z,28.1
2018-12-18T17:09:55.000Z,28.2
2018-12-18T17:11:39.000Z,28.3
2018-12-18T17:12:55.000Z,28.2
2018-12-18T17:13:55.000Z,28.2
2018-12-18T17:14:55.000Z,28.3
2018-12-18T17:16:55.000Z,28.3
2018-12-18T17:18:55.000Z,28.3
2018-12-18T17:20:55.000Z,28.2
2018-12-18T17:22:39.000Z,28.2
2018-12-18T17:23:54.000Z,28.1
2018-12-18T17:24:55.000Z,28.1
2018-12-18T17:26:55.000Z,28.1
2018-12-18T17:28:55.000Z,28.1
2018-12-18T17:29:55.000Z,28.1
2018-12-18T17:30:55.000Z,28.1
2018-12-18T17:31:55.000Z,28.2
2018-12-18T17:33:55.000Z,28.3
2018-12-18T17:34:55.000Z,28.3
2018-12-18T17:35:55.000Z,28.3
2018-12-18T17:36:55.000Z,28.3
2018-12-18T17:38:55.000Z,28.3
2018-12-18T17:40:55.000Z,28.2
2018-12-18T17:41:55.000Z,28.2
2018-12-18T17:42:55.000Z,28.2
2018-12-18T17:43:55.000Z,28.2
2018-12-18T17:45:55.000Z,28.1
2018-12-18T17:46:55.000Z,28.1
2018-12-18T17:47:55.000Z,28.1
2018-12-18T17:49:39.000Z,28.2
2018-12-18T17:50:55.000Z,28.1
2018-12-18T17:51:55.000Z,28.2
2018-12-18T17:53:55.000Z,28.1
2018-12-18T17:54:55.000Z,28.1
2018-12-18T17:56:55.000Z,28.2
2018-12-18T17:57:55.000Z,28.2
2018-12-18T17:58:55.000Z,28.2
2018-12-18T18:00:40.000Z,28.3
2018-12-18T18:01:55.000Z,28.1
2018-12-18T18:02:55.000Z,28.1
2018-12-18T18:04:39.000Z,28.1
2018-12-18T18:05:55.000Z,28.1
2018-12-18T18:07:40.000Z,28.1
2018-12-18T18:08:55.000Z,27.9
2018-12-18T18:09:55.000Z,27.9
2018-12-18T18:11:55.000Z,27.9
2018-12-18T18:13:55.000Z,27.9
2018-12-18T18:15:55.000Z,27.9
2018-12-18T18:17:55.000Z,27.8
2018-12-18T18:18:55.000Z,27.9
2018-12-18T18:20:55.000Z,28
2018-12-18T18:21:55.000Z,28
2018-12-18T18:23:40.000Z,28
2018-12-18T18:24:55.000Z,28
2018-12-18T18:25:55.000Z,28
2018-12-18T18:27:39.000Z,28.1
2018-12-18T18:28:55.000Z,28.1
2018-12-18T18:29:55.000Z,28.1
2018-12-18T18:30:55.000Z,28.1
2018-12-18T18:32:55.000Z,28.1
2018-12-18T18:34:55.000Z,28
2018-12-18T18:35:55.000Z,28
2018-12-18T18:37:55.000Z,28
2018-12-18T18:38:55.000Z,28
2018-12-18T18:39:55.000Z,28
2018-12-18T18:41:40.000Z,28.1
2018-12-18T18:42:55.000Z,28.1
2018-12-18T18:43:55.000Z,28.1
2018-12-18T18:45:55.000Z,28.1
2018-12-18T18:47:55.000Z,28
2018-12-18T18:48:55.000Z,28
2018-12-18T18:50:54.000Z,28.1
2018-12-18T18:51:54.000Z,28.1
2018-12-18T18:53:54.000Z,28.1
2018-12-18T18:55:54.000Z,28
2018-12-18T18:56:54.000Z,28
2018-12-18T18:58:55.000Z,28
2018-12-18T19:00:54.000Z,28
2018-12-18T19:02:54.000Z,28
2018-12-18T19:04:54.000Z,28
2018-12-18T19:06:54.000Z,27.8
2018-12-18T19:07:54.000Z,27.8
2018-12-18T19:09:39.000Z,27.8
2018-12-18T19:10:54.000Z,27.8
2018-12-18T19:12:54.000Z,27.8
2018-12-18T19:14:54.000Z,27.8
2018-12-18T19:15:54.000Z,27.8
2018-12-18T19:17:54.000Z,27.8
2018-12-18T19:19:54.000Z,27.9
2018-12-18T19:21:54.000Z,27.9
2018-12-18T19:22:54.000Z,27.9
2018-12-18T19:23:54.000Z,27.9
2018-12-18T19:25:39.000Z,28
2018-12-18T19:26:54.000Z,27.9
2018-12-18T19:28:54.000Z,27.8
2018-12-18T19:30:39.000Z,27.8
2018-12-18T19:31:54.000Z,27.7
2018-12-18T19:32:54.000Z,27.8
2018-12-18T19:34:54.000Z,27.8
2018-12-18T19:35:54.000Z,27.8
2018-12-18T19:36:54.000Z,27.9
2018-12-18T19:38:54.000Z,28
2018-12-18T19:39:54.000Z,28
2018-12-18T19:41:54.000Z,28
2018-12-18T19:42:54.000Z,28
2018-12-18T19:43:54.000Z,28.1
2018-12-18T19:44:54.000Z,28.1
2018-12-18T19:46:39.000Z,28.1
2018-12-18T19:47:54.000Z,28.1
2018-12-18T19:49:54.000Z,28.1
2018-12-18T19:51:54.000Z,28
2018-12-18T19:53:54.000Z,27.9
2018-12-18T19:54:54.000Z,27.9
2018-12-18T19:55:54.000Z,27.9
2018-12-18T19:57:54.000Z,27.9
2018-12-18T19:59:39.000Z,27.8
2018-12-18T20:00:54.000Z,27.7
2018-12-18T20:01:54.000Z,27.6
2018-12-18T20:03:54.000Z,27.6
2018-12-18T20:05:54.000Z,27.6
2018-12-18T20:06:54.000Z,27.6
2018-12-18T20:07:54.000Z,27.7
2018-12-18T20:09:54.000Z,27.7
2018-12-18T20:11:54.000Z,27.7
2018-12-18T20:12:54.000Z,27.8
2018-12-18T20:14:54.000Z,27.8
2018-12-18T20:16:54.000Z,27.7
2018-12-18T20:18:54.000Z,27.7
2018-12-18T20:20:54.000Z,27.6
2018-12-18T20:21:54.000Z,27.6
2018-12-18T20:22:54.000Z,27.7
2018-12-18T20:23:54.000Z,27.8
2018-12-18T20:25:39.000Z,27.8
2018-12-18T20:26:54.000Z,27.8
2018-12-18T20:28:54.000Z,27.7
2018-12-18T20:29:54.000Z,27.7
2018-12-18T20:31:54.000Z,27.6
2018-12-18T20:32:54.000Z,27.6
2018-12-18T20:33:54.000Z,27.7
2018-12-18T20:35:54.000Z,27.8
2018-12-18T20:37:39.000Z,27.8
2018-12-18T20:38:54.000Z,27.6
2018-12-18T20:39:54.000Z,27.6
2018-12-18T20:40:54.000Z,27.6
2018-12-18T20:42:54.000Z,27.6
2018-12-18T20:43:54.000Z,27.7
2018-12-18T20:45:54.000Z,27.6
2018-12-18T20:47:54.000Z,27.6
2018-12-18T20:48:54.000Z,27.6
2018-12-18T20:50:54.000Z,27.6
2018-12-18T20:51:54.000Z,27.6
2018-12-18T20:52:54.000Z,27.7
2018-12-18T20:53:54.000Z,27.7
2018-12-18T20:55:54.000Z,27.7
2018-12-18T20:56:54.000Z,27.7
2018-12-18T20:57:54.000Z,27.7
2018-12-18T20:59:54.000Z,27.8
2018-12-18T21:00:54.000Z,27.8
2018-12-18T21:01:54.000Z,27.8
2018-12-18T21:03:39.000Z,27.8
2018-12-18T21:04:54.000Z,27.7
2018-12-18T21:05:54.000Z,27.7
2018-12-18T21:06:54.000Z,27.7
2018-12-18T21:08:54.000Z,27.7
2018-12-18T21:10:54.000Z,27.6
2018-12-18T21:11:54.000Z,27.6
2018-12-18T21:12:54.000Z,27.6